createdAt,value
2019-02-05T00:00:15.555Z,1020.28
2019-02-05T00:01:15.534Z,1020.31
2019-02-05T00:02:15.514Z,1020.31
2019-02-05T00:03:15.522Z,1020.32
2019-02-05T00:04:15.493Z,1020.47
2019-02-05T00:05:15.502Z,1020.34
2019-02-05T00:06:15.478Z,1020.53
2019-02-05T00:07:15.504Z,1020.48
2019-02-05T00:08:15.465Z,1020.38
2019-02-05T00:09:15.452Z,1020.43
2019-02-05T00:10:15.430Z,1020.34
2019-02-05T00:11:15.418Z,1020.32
2019-02-05T00:12:15.409Z,1020.35
2019-02-05T00:13:15.416Z,1020.37
2019-02-05T00:14:15.381Z,1020.29
2019-02-05T00:15:15.387Z,1020.36
2019-02-05T00:16:15.393Z,1020.35
2019-02-05T00:17:15.351Z,1020.36
2019-02-05T00:18:15.355Z,1020.32
2019-02-05T00:19:15.327Z,1020.26
2019-02-05T00:20:15.322Z,1020.31
2019-02-05T00:21:15.307Z,1020.28
2019-02-05T00:22:15.304Z,1020.28
2019-02-05T00:23:15.302Z,1020.25
2019-02-05T00:24:15.279Z,1020.21
2019-02-05T00:25:15.268Z,1020.28
2019-02-05T00:26:15.253Z,1020.26
2019-02-05T00:27:15.240Z,1020.29
2019-02-05T00:28:15.260Z,1020.29
2019-02-05T00:29:15.219Z,1020.28
2019-02-05T00:30:15.213Z,1020.38
2019-02-05T00:31:15.198Z,1020.26
2019-02-05T00:32:15.192Z,1020.21
2019-02-05T00:33:15.185Z,1020.46
2019-02-05T00:34:15.165Z,1020.25
2019-02-05T00:35:15.167Z,1020.42
2019-02-05T00:36:15.149Z,1020.26
2019-02-05T00:37:15.140Z,1020.32
2019-02-05T00:38:15.145Z,1020.30
2019-02-05T00:39:15.114Z,1020.42
2019-02-05T00:40:15.098Z,1020.42
2019-02-05T00:41:15.079Z,1020.37
2019-02-05T00:42:15.084Z,1020.41
2019-02-05T00:43:15.068Z,1020.39
2019-02-05T00:44:15.074Z,1020.35
2019-02-05T00:45:15.056Z,1020.41
2019-02-05T00:46:15.030Z,1020.32
2019-02-05T00:47:15.022Z,1020.28
2019-02-05T00:48:15.012Z,1020.15
2019-02-05T00:49:15.019Z,1020.23
2019-02-05T00:50:14.990Z,1020.27
2019-02-05T00:51:14.979Z,1020.32
2019-02-05T00:52:14.976Z,1020.28
2019-02-05T00:53:14.956Z,1020.32
2019-02-05T00:54:15.085Z,1020.27
2019-02-05T00:55:14.938Z,1020.28
2019-02-05T00:56:17.760Z,1020.24
2019-02-05T00:57:14.921Z,1020.27
2019-02-05T00:58:14.912Z,1020.30
2019-02-05T00:59:15.678Z,1020.18
2019-02-05T01:00:14.903Z,1020.21
2019-02-05T01:01:15.463Z,1020.32
2019-02-05T01:02:14.853Z,1020.30
2019-02-05T01:03:14.855Z,1020.30
2019-02-05T01:04:14.862Z,1020.29
2019-02-05T01:05:14.838Z,1020.31
2019-02-05T01:06:14.819Z,1020.08
2019-02-05T01:07:14.800Z,1020.11
2019-02-05T01:08:14.810Z,1019.97
2019-02-05T01:09:14.800Z,1019.97
2019-02-05T01:10:14.772Z,1019.91
2019-02-05T01:11:14.765Z,1020.02
2019-02-05T01:12:14.750Z,1019.97
2019-02-05T01:13:14.742Z,1019.95
2019-02-05T01:14:14.746Z,1020.00
2019-02-05T01:15:14.713Z,1020.05
2019-02-05T01:16:14.712Z,1019.98
2019-02-05T01:17:14.699Z,1019.88
2019-02-05T01:18:14.677Z,1019.99
2019-02-05T01:19:14.698Z,1020.07
2019-02-05T01:20:14.663Z,1020.05
2019-02-05T01:21:14.649Z,1019.99
2019-02-05T01:22:14.651Z,1020.03
2019-02-05T01:23:14.634Z,1020.03
2019-02-05T01:24:14.625Z,1019.98
2019-02-05T01:25:14.626Z,1020.02
2019-02-05T01:26:14.609Z,1020.00
2019-02-05T01:27:14.594Z,1020.02
2019-02-05T01:28:14.571Z,1019.98
2019-02-05T01:29:14.569Z,1019.84
2019-02-05T01:30:14.579Z,1019.90
2019-02-05T01:31:14.532Z,1019.84
2019-02-05T01:32:14.540Z,1019.90
2019-02-05T01:33:14.530Z,1019.80
2019-02-05T01:34:14.525Z,1019.81
2019-02-05T01:35:14.518Z,1019.80
2019-02-05T01:36:14.486Z,1019.71
2019-02-05T01:37:14.485Z,1019.72
2019-02-05T01:38:14.461Z,1019.73
2019-02-05T01:39:14.452Z,1019.74
2019-02-05T01:40:14.461Z,1019.67
2019-02-05T01:41:14.435Z,1019.69
2019-02-05T01:42:14.430Z,1019.74
2019-02-05T01:43:14.427Z,1019.76
2019-02-05T01:44:14.401Z,1019.63
2019-02-05T01:45:14.409Z,1019.64
2019-02-05T01:46:14.376Z,1019.61
2019-02-05T01:47:14.376Z,1019.60
2019-02-05T01:48:14.363Z,1019.57
2019-02-05T01:49:14.344Z,1019.57
2019-02-05T01:50:14.354Z,1019.61
2019-02-05T01:51:14.320Z,1019.72
2019-02-05T01:52:14.322Z,1019.75
2019-02-05T01:53:14.299Z,1019.62
2019-02-05T01:54:14.300Z,1019.66
2019-02-05T01:55:14.303Z,1019.60
2019-02-05T01:56:14.279Z,1019.69
2019-02-05T01:57:14.264Z,1019.66
2019-02-05T01:58:14.259Z,1019.57
2019-02-05T01:59:14.237Z,1019.49
2019-02-05T02:00:14.234Z,1019.50
2019-02-05T02:01:14.214Z,1019.43
2019-02-05T02:02:14.205Z,1019.44
2019-02-05T02:03:14.195Z,1019.38
2019-02-05T02:04:14.181Z,1019.41
2019-02-05T02:05:14.186Z,1019.44
2019-02-05T02:06:14.167Z,1019.35
2019-02-05T02:07:14.149Z,1019.36
2019-02-05T02:08:14.143Z,1019.33
2019-02-05T02:09:14.125Z,1019.51
2019-02-05T02:10:14.139Z,1019.44
2019-02-05T02:11:14.111Z,1019.48
2019-02-05T02:12:14.093Z,1019.43
2019-02-05T02:13:14.087Z,1019.54
2019-02-05T02:14:14.075Z,1019.38
2019-02-05T02:15:14.069Z,1019.50
2019-02-05T02:16:14.075Z,1019.46
2019-02-05T02:17:14.041Z,1019.33
2019-02-05T02:18:14.034Z,1019.26
2019-02-05T02:19:14.020Z,1019.31
2019-02-05T02:20:14.009Z,1019.29
2019-02-05T02:21:14.019Z,1019.25
2019-02-05T02:22:13.980Z,1019.25
2019-02-05T02:23:13.974Z,1019.24
2019-02-05T02:24:13.963Z,1019.27
2019-02-05T02:25:13.954Z,1019.27
2019-02-05T02:26:13.954Z,1019.32
2019-02-05T02:27:13.934Z,1019.26
2019-02-05T02:28:13.916Z,1019.26
2019-02-05T02:29:13.931Z,1019.27
2019-02-05T02:30:13.897Z,1019.36
2019-02-05T02:31:13.900Z,1019.41
2019-02-05T02:32:13.883Z,1019.35
2019-02-05T02:33:13.864Z,1019.44
2019-02-05T02:34:13.855Z,1019.26
2019-02-05T02:35:13.854Z,1019.25
2019-02-05T02:36:13.858Z,1019.29
2019-02-05T02:37:13.830Z,1019.29
2019-02-05T02:38:13.816Z,1019.27
2019-02-05T02:39:13.810Z,1019.42
2019-02-05T02:40:13.794Z,1019.27
2019-02-05T02:41:13.799Z,1019.26
2019-02-05T02:42:13.766Z,1019.26
2019-02-05T02:43:13.766Z,1019.30
2019-02-05T02:44:13.739Z,1019.33
2019-02-05T02:45:13.761Z,1019.33
2019-02-05T02:46:13.754Z,1019.33
2019-02-05T02:47:13.709Z,1019.29
2019-02-05T02:48:13.704Z,1019.31
2019-02-05T02:49:13.706Z,1019.30
2019-02-05T02:50:13.676Z,1019.24
2019-02-05T02:51:13.686Z,1019.25
2019-02-05T02:52:13.658Z,1019.34
2019-02-05T02:53:13.648Z,1019.23
2019-02-05T02:54:13.639Z,1019.25
2019-02-05T02:55:13.624Z,1019.29
2019-02-05T02:56:13.634Z,1019.30
2019-02-05T02:57:13.617Z,1019.44
2019-02-05T02:58:13.767Z,1019.42
2019-02-05T02:59:13.573Z,1019.34
2019-02-05T03:00:13.569Z,1019.36
2019-02-05T03:01:13.577Z,1019.48
2019-02-05T03:02:13.554Z,1019.51
2019-02-05T03:03:13.532Z,1019.57
2019-02-05T03:04:13.528Z,1019.42
2019-02-05T03:05:13.521Z,1019.53
2019-02-05T03:06:13.521Z,1019.57
2019-02-05T03:07:13.498Z,1019.61
2019-02-05T03:08:13.492Z,1019.53
2019-02-05T03:09:13.475Z,1019.46
2019-02-05T03:10:13.460Z,1019.52
2019-02-05T03:11:13.470Z,1019.63
2019-02-05T03:12:13.437Z,1019.45
2019-02-05T03:13:13.431Z,1019.53
2019-02-05T03:14:13.422Z,1019.45
2019-02-05T03:15:13.403Z,1019.46
2019-02-05T03:16:13.419Z,1019.56
2019-02-05T03:17:13.383Z,1019.57
2019-02-05T03:18:13.379Z,1019.55
2019-02-05T03:19:13.370Z,1019.41
2019-02-05T03:20:13.501Z,1019.33
2019-02-05T03:21:13.363Z,1019.31
2019-02-05T03:22:13.526Z,1019.34
2019-02-05T03:23:13.321Z,1019.27
2019-02-05T03:24:13.313Z,1019.25
2019-02-05T03:25:13.293Z,1019.29
2019-02-05T03:26:13.287Z,1019.29
2019-02-05T03:27:17.784Z,1019.26
2019-02-05T03:28:14.258Z,1019.24
2019-02-05T03:29:13.252Z,1019.28
2019-02-05T03:30:13.247Z,1019.35
2019-02-05T03:31:13.236Z,1019.28
2019-02-05T03:32:13.242Z,1019.25
2019-02-05T03:33:13.213Z,1019.25
2019-02-05T03:34:13.211Z,1019.22
2019-02-05T03:35:13.193Z,1019.39
2019-02-05T03:36:13.187Z,1019.40
2019-02-05T03:37:13.188Z,1019.37
2019-02-05T03:38:13.160Z,1019.37
2019-02-05T03:39:13.148Z,1019.44
2019-02-05T03:40:13.142Z,1019.37
2019-02-05T03:41:13.146Z,1019.42
2019-02-05T03:42:13.159Z,1019.34
2019-02-05T03:43:13.101Z,1019.34
2019-02-05T03:44:13.093Z,1019.38
2019-02-05T03:45:13.077Z,1019.37
2019-02-05T03:46:13.065Z,1019.37
2019-02-05T03:47:13.067Z,1019.37
2019-02-05T03:48:13.050Z,1019.37
2019-02-05T03:49:13.029Z,1019.40
2019-02-05T03:50:13.035Z,1019.34
2019-02-05T03:51:13.016Z,1019.39
2019-02-05T03:52:13.107Z,1019.36
2019-02-05T03:53:12.986Z,1019.37
2019-02-05T03:54:12.984Z,1019.24
2019-02-05T03:55:12.968Z,1019.19
2019-02-05T03:56:12.956Z,1019.27
2019-02-05T03:57:12.964Z,1019.22
2019-02-05T03:58:12.940Z,1019.19
2019-02-05T03:59:12.923Z,1019.17
2019-02-05T04:00:12.927Z,1019.21
2019-02-05T04:01:12.898Z,1019.16
2019-02-05T04:02:12.947Z,1019.17
2019-02-05T04:03:12.904Z,1019.16
2019-02-05T04:04:12.881Z,1019.16
2019-02-05T04:05:12.857Z,1019.22
2019-02-05T04:06:12.864Z,1019.19
2019-02-05T04:07:12.867Z,1019.31
2019-02-05T04:08:12.841Z,1019.31
2019-02-05T04:09:12.825Z,1019.33
2019-02-05T04:10:12.803Z,1019.35
2019-02-05T04:11:12.796Z,1019.21
2019-02-05T04:12:12.790Z,1019.21
2019-02-05T04:13:12.789Z,1019.28
2019-02-05T04:14:12.761Z,1019.27
2019-02-05T04:15:12.762Z,1019.28
2019-02-05T04:16:12.737Z,1019.19
2019-02-05T04:17:12.726Z,1019.27
2019-02-05T04:18:12.748Z,1019.24
2019-02-05T04:19:12.717Z,1019.24
2019-02-05T04:20:12.707Z,1019.36
2019-02-05T04:21:12.678Z,1019.32
2019-02-05T04:22:12.666Z,1019.29
2019-02-05T04:23:12.680Z,1019.37
2019-02-05T04:24:12.648Z,1019.22
2019-02-05T04:25:12.751Z,1019.21
2019-02-05T04:26:12.633Z,1019.23
2019-02-05T04:27:12.616Z,1019.24
2019-02-05T04:28:12.619Z,1019.20
2019-02-05T04:29:12.607Z,1019.20
2019-02-05T04:30:12.589Z,1019.20
2019-02-05T04:31:12.655Z,1019.18
2019-02-05T04:32:12.567Z,1019.01
2019-02-05T04:33:12.591Z,1019.22
2019-02-05T04:34:12.563Z,1019.12
2019-02-05T04:35:12.533Z,1019.07
2019-02-05T04:36:12.521Z,1018.97
2019-02-05T04:37:12.511Z,1018.88
2019-02-05T04:38:12.526Z,1018.90
2019-02-05T04:39:12.494Z,1018.92
2019-02-05T04:40:12.489Z,1018.92
2019-02-05T04:41:12.459Z,1018.98
2019-02-05T04:42:12.466Z,1019.00
2019-02-05T04:43:12.448Z,1019.03
2019-02-05T04:44:12.437Z,1019.05
2019-02-05T04:45:12.442Z,1019.11
2019-02-05T04:46:12.425Z,1019.08
2019-02-05T04:47:12.404Z,1019.25
2019-02-05T04:48:12.421Z,1019.23
2019-02-05T04:49:12.386Z,1019.25
2019-02-05T04:50:12.402Z,1019.30
2019-02-05T04:51:12.353Z,1019.13
2019-02-05T04:52:12.339Z,1019.17
2019-02-05T04:53:12.330Z,1019.24
2019-02-05T04:54:12.329Z,1019.10
2019-02-05T04:55:12.318Z,1019.17
2019-02-05T04:56:12.298Z,1019.10
2019-02-05T04:57:12.309Z,1019.12
2019-02-05T04:58:12.285Z,1019.10
2019-02-05T04:59:12.281Z,1019.13
2019-02-05T05:00:12.267Z,1019.11
2019-02-05T05:01:12.244Z,1019.07
2019-02-05T05:02:12.239Z,1019.14
2019-02-05T05:03:12.226Z,1019.15
2019-02-05T05:04:12.228Z,1019.12
2019-02-05T05:05:12.208Z,1019.07
2019-02-05T05:06:12.200Z,1019.19
2019-02-05T05:07:12.206Z,1019.12
2019-02-05T05:08:12.176Z,1019.08
2019-02-05T05:09:12.166Z,1019.03
2019-02-05T05:10:12.155Z,1019.07
2019-02-05T05:11:12.137Z,1019.04
2019-02-05T05:12:12.132Z,1019.03
2019-02-05T05:13:12.115Z,1019.09
2019-02-05T05:14:12.123Z,1019.02
2019-02-05T05:15:12.088Z,1019.17
2019-02-05T05:16:12.089Z,1019.21
2019-02-05T05:17:12.076Z,1019.18
2019-02-05T05:18:15.299Z,1019.07
2019-02-05T05:19:12.058Z,1019.05
2019-02-05T05:20:12.042Z,1019.11
2019-02-05T05:21:12.028Z,1019.15
2019-02-05T05:22:12.023Z,1019.00
2019-02-05T05:23:12.017Z,1018.95
2019-02-05T05:24:12.032Z,1018.97
2019-02-05T05:25:11.988Z,1018.98
2019-02-05T05:26:11.966Z,1018.91
2019-02-05T05:27:11.972Z,1018.91
2019-02-05T05:28:11.948Z,1018.90
2019-02-05T05:29:11.965Z,1018.92
2019-02-05T05:30:11.933Z,1018.94
2019-02-05T05:31:11.927Z,1019.06
2019-02-05T05:32:11.911Z,1019.07
2019-02-05T05:33:11.909Z,1019.07
2019-02-05T05:34:11.891Z,1019.06
2019-02-05T05:35:11.891Z,1018.93
2019-02-05T05:36:11.874Z,1018.93
2019-02-05T05:37:11.876Z,1018.85
2019-02-05T05:38:11.843Z,1018.92
2019-02-05T05:39:11.831Z,1018.90
2019-02-05T05:40:11.837Z,1018.88
2019-02-05T05:41:11.815Z,1018.83
2019-02-05T05:42:11.792Z,1018.84
2019-02-05T05:43:11.790Z,1018.96
2019-02-05T05:44:11.781Z,1018.96
2019-02-05T05:45:11.775Z,1019.01
2019-02-05T05:46:11.765Z,1019.02
2019-02-05T05:47:11.751Z,1018.96
2019-02-05T05:48:11.783Z,1019.02
2019-02-05T05:49:11.725Z,1018.90
2019-02-05T05:50:11.735Z,1018.92
2019-02-05T05:51:11.702Z,1018.89
2019-02-05T05:52:11.695Z,1018.97
2019-02-05T05:53:11.689Z,1019.06
2019-02-05T05:54:11.707Z,1019.11
2019-02-05T05:55:11.685Z,1019.03
2019-02-05T05:56:11.647Z,1019.02
2019-02-05T05:57:11.640Z,1018.89
2019-02-05T05:58:22.361Z,1019.01
2019-02-05T05:59:12.609Z,1018.99
2019-02-05T06:00:11.630Z,1018.95
2019-02-05T06:01:11.591Z,1018.95
2019-02-05T06:02:11.598Z,1019.03
2019-02-05T06:03:11.567Z,1019.00
2019-02-05T06:04:11.566Z,1019.01
2019-02-05T06:05:11.571Z,1018.98
2019-02-05T06:06:11.537Z,1019.06
2019-02-05T06:07:11.521Z,1019.02
2019-02-05T06:08:11.514Z,1019.04
2019-02-05T06:09:11.494Z,1019.02
2019-02-05T06:10:11.511Z,1019.00
2019-02-05T06:11:11.483Z,1019.12
2019-02-05T06:12:11.476Z,1019.11
2019-02-05T06:13:11.469Z,1019.14
2019-02-05T06:14:11.457Z,1019.08
2019-02-05T06:15:11.456Z,1019.02
2019-02-05T06:16:11.424Z,1019.05
2019-02-05T06:17:11.427Z,1019.13
2019-02-05T06:18:11.419Z,1019.07
2019-02-05T06:19:11.392Z,1019.09
2019-02-05T06:20:11.413Z,1019.10
2019-02-05T06:21:13.595Z,1019.07
2019-02-05T06:22:11.362Z,1019.12
2019-02-05T06:23:11.346Z,1019.17
2019-02-05T06:24:11.342Z,1019.05
2019-02-05T06:25:11.339Z,1019.09
2019-02-05T06:26:11.341Z,1019.14
2019-02-05T06:27:11.304Z,1019.24
2019-02-05T06:28:11.316Z,1019.21
2019-02-05T06:29:11.294Z,1019.21
2019-02-05T06:30:11.282Z,1019.21
2019-02-05T06:31:11.282Z,1019.16
2019-02-05T06:32:11.248Z,1019.06
2019-02-05T06:33:11.242Z,1019.10
2019-02-05T06:34:11.248Z,1019.04
2019-02-05T06:35:11.211Z,1019.00
2019-02-05T06:36:11.224Z,1019.04
2019-02-05T06:37:11.198Z,1019.14
2019-02-05T06:38:11.192Z,1019.09
2019-02-05T06:39:11.174Z,1019.04
2019-02-05T06:40:11.158Z,1019.08
2019-02-05T06:41:11.184Z,1019.05
2019-02-05T06:42:11.150Z,1019.19
2019-02-05T06:43:11.128Z,1019.25
2019-02-05T06:44:11.126Z,1019.12
2019-02-05T06:45:11.114Z,1019.11
2019-02-05T06:46:11.117Z,1019.10
2019-02-05T06:47:11.082Z,1019.15
2019-02-05T06:48:11.078Z,1019.09
2019-02-05T06:49:11.070Z,1019.14
2019-02-05T06:50:11.063Z,1019.11
2019-02-05T06:51:11.059Z,1019.15
2019-02-05T06:52:11.033Z,1019.10
2019-02-05T06:53:11.023Z,1019.14
2019-02-05T06:54:11.033Z,1019.13
2019-02-05T06:55:11.006Z,1019.12
2019-02-05T06:56:11.014Z,1019.21
2019-02-05T06:57:10.981Z,1019.12
2019-02-05T06:58:10.969Z,1019.18
2019-02-05T06:59:10.982Z,1019.20
2019-02-05T07:00:10.951Z,1019.30
2019-02-05T07:01:10.939Z,1019.31
2019-02-05T07:02:10.942Z,1019.34
2019-02-05T07:03:10.915Z,1019.34
2019-02-05T07:04:10.894Z,1019.43
2019-02-05T07:05:10.989Z,1019.38
2019-02-05T07:06:10.882Z,1019.29
2019-02-05T07:07:10.887Z,1019.39
2019-02-05T07:08:10.852Z,1019.47
2019-02-05T07:09:10.849Z,1019.43
2019-02-05T07:10:10.844Z,1019.48
2019-02-05T07:11:10.821Z,1019.42
2019-02-05T07:12:10.819Z,1019.40
2019-02-05T07:13:10.812Z,1019.44
2019-02-05T07:14:10.794Z,1019.51
2019-02-05T07:15:10.791Z,1019.37
2019-02-05T07:16:10.763Z,1019.44
2019-02-05T07:17:10.763Z,1019.49
2019-02-05T07:18:10.739Z,1019.61
2019-02-05T07:19:10.755Z,1019.61
2019-02-05T07:20:10.716Z,1019.53
2019-02-05T07:21:10.725Z,1019.65
2019-02-05T07:22:10.721Z,1019.68
2019-02-05T07:23:10.696Z,1019.54
2019-02-05T07:24:10.679Z,1019.56
2019-02-05T07:25:10.678Z,1019.56
2019-02-05T07:26:10.660Z,1019.60
2019-02-05T07:27:10.654Z,1019.65
2019-02-05T07:28:10.641Z,1019.70
2019-02-05T07:29:10.627Z,1019.75
2019-02-05T07:30:10.647Z,1019.70
2019-02-05T07:31:10.598Z,1019.67
2019-02-05T07:32:10.616Z,1019.70
2019-02-05T07:33:10.591Z,1019.72
2019-02-05T07:34:10.594Z,1019.78
2019-02-05T07:35:10.567Z,1019.72
2019-02-05T07:36:10.568Z,1019.80
2019-02-05T07:37:10.565Z,1019.81
2019-02-05T07:38:10.593Z,1019.68
2019-02-05T07:39:10.525Z,1019.67
2019-02-05T07:40:10.621Z,1019.66
2019-02-05T07:41:10.507Z,1019.54
2019-02-05T07:42:10.478Z,1019.64
2019-02-05T07:43:10.487Z,1019.65
2019-02-05T07:44:10.463Z,1019.65
2019-02-05T07:45:10.452Z,1019.66
2019-02-05T07:46:10.460Z,1019.66
2019-02-05T07:47:10.447Z,1019.61
2019-02-05T07:48:10.441Z,1019.59
2019-02-05T07:49:10.425Z,1019.74
2019-02-05T07:50:10.388Z,1019.72
2019-02-05T07:51:10.393Z,1019.79
2019-02-05T07:52:10.371Z,1019.77
2019-02-05T07:53:10.376Z,1019.76
2019-02-05T07:54:10.357Z,1019.72
2019-02-05T07:55:10.343Z,1019.63
2019-02-05T07:56:12.866Z,1019.56
2019-02-05T07:57:10.319Z,1019.56
2019-02-05T07:58:10.324Z,1019.59
2019-02-05T07:59:10.679Z,1019.62
2019-02-05T08:00:10.289Z,1019.64
2019-02-05T08:01:10.280Z,1019.72
2019-02-05T08:02:10.270Z,1019.66
2019-02-05T08:03:10.279Z,1019.61
2019-02-05T08:04:10.243Z,1019.67
2019-02-05T08:05:10.230Z,1019.64
2019-02-05T08:06:10.228Z,1019.70
2019-02-05T08:07:10.212Z,1019.71
2019-02-05T08:08:10.209Z,1019.67
2019-02-05T08:09:10.244Z,1019.65
2019-02-05T08:10:10.178Z,1019.69
2019-02-05T08:11:10.174Z,1019.75
2019-02-05T08:12:10.156Z,1019.71
2019-02-05T08:13:10.171Z,1019.71
2019-02-05T08:14:10.129Z,1019.77
2019-02-05T08:15:10.126Z,1019.71
2019-02-05T08:16:10.116Z,1019.73
2019-02-05T08:17:10.116Z,1019.73
2019-02-05T08:18:10.106Z,1019.89
2019-02-05T08:19:10.116Z,1019.71
2019-02-05T08:20:10.072Z,1019.77
2019-02-05T08:21:10.059Z,1019.76
2019-02-05T08:22:10.056Z,1019.78
2019-02-05T08:23:10.027Z,1019.76
2019-02-05T08:24:10.050Z,1019.70
2019-02-05T08:25:10.013Z,1019.74
2019-02-05T08:26:10.002Z,1019.89
2019-02-05T08:27:09.998Z,1019.92
2019-02-05T08:28:09.975Z,1019.73
2019-02-05T08:29:21.130Z,1019.67
2019-02-05T08:30:10.961Z,1019.79
2019-02-05T08:31:09.957Z,1019.66
2019-02-05T08:32:09.928Z,1019.71
2019-02-05T08:33:09.926Z,1019.89
2019-02-05T08:34:09.966Z,1019.90
2019-02-05T08:35:09.907Z,1019.88
2019-02-05T08:36:09.889Z,1019.85
2019-02-05T08:37:09.891Z,1019.97
2019-02-05T08:38:09.872Z,1019.84
2019-02-05T08:39:09.875Z,1019.81
2019-02-05T08:40:09.851Z,1019.85
2019-02-05T08:41:09.836Z,1019.80
2019-02-05T08:42:09.827Z,1019.75
2019-02-05T08:43:09.813Z,1019.76
2019-02-05T08:44:09.819Z,1019.74
2019-02-05T08:45:09.798Z,1019.82
2019-02-05T08:46:09.779Z,1019.79
2019-02-05T08:47:09.775Z,1019.78
2019-02-05T08:48:09.757Z,1019.92
2019-02-05T08:49:09.771Z,1019.89
2019-02-05T08:50:09.850Z,1020.06
2019-02-05T08:51:09.763Z,1019.86
2019-02-05T08:52:09.706Z,1019.92
2019-02-05T08:53:09.705Z,1020.08
2019-02-05T08:54:09.697Z,1020.14
2019-02-05T08:55:09.681Z,1020.02
2019-02-05T08:56:09.689Z,1019.97
2019-02-05T08:57:09.662Z,1020.00
2019-02-05T08:58:09.664Z,1020.04
2019-02-05T08:59:09.665Z,1019.91
2019-02-05T09:00:09.636Z,1019.87
2019-02-05T09:01:09.628Z,1019.91
2019-02-05T09:02:09.603Z,1020.00
2019-02-05T09:03:09.593Z,1020.01
2019-02-05T09:04:09.616Z,1019.97
2019-02-05T09:05:09.575Z,1020.05
2019-02-05T09:06:09.554Z,1020.01
2019-02-05T09:07:09.557Z,1020.04
2019-02-05T09:08:09.550Z,1020.09
2019-02-05T09:09:09.555Z,1020.06
2019-02-05T09:10:09.519Z,1020.04
2019-02-05T09:11:09.509Z,1020.05
2019-02-05T09:12:09.512Z,1020.20
2019-02-05T09:13:09.485Z,1020.17
2019-02-05T09:14:10.880Z,1020.15
2019-02-05T09:15:09.489Z,1020.09
2019-02-05T09:16:09.444Z,1020.08
2019-02-05T09:17:09.441Z,1020.25
2019-02-05T09:18:09.439Z,1020.31
2019-02-05T09:19:09.424Z,1020.20
2019-02-05T09:20:09.428Z,1020.17
2019-02-05T09:21:09.400Z,1020.16
2019-02-05T09:22:09.399Z,1020.00
2019-02-05T09:23:09.396Z,1020.04
2019-02-05T09:24:09.372Z,1020.08
2019-02-05T09:25:09.387Z,1020.16
2019-02-05T09:26:09.349Z,1020.23
2019-02-05T09:27:09.340Z,1020.37
2019-02-05T09:28:09.316Z,1020.32
2019-02-05T09:29:09.307Z,1020.21
2019-02-05T09:30:09.318Z,1020.15
2019-02-05T09:31:09.296Z,1020.14
2019-02-05T09:32:09.282Z,1020.20
2019-02-05T09:33:09.274Z,1020.09
2019-02-05T09:34:09.253Z,1020.15
2019-02-05T09:35:09.262Z,1020.18
2019-02-05T09:36:09.230Z,1020.17
2019-02-05T09:37:09.220Z,1020.31
2019-02-05T09:38:09.217Z,1020.20
2019-02-05T09:39:09.209Z,1020.18
2019-02-05T09:40:09.211Z,1020.11
2019-02-05T09:41:09.175Z,1020.19
2019-02-05T09:42:09.165Z,1020.19
2019-02-05T09:43:09.147Z,1020.28
2019-02-05T09:44:09.136Z,1020.24
2019-02-05T09:45:09.158Z,1020.24
2019-02-05T09:46:09.116Z,1020.21
2019-02-05T09:47:09.108Z,1020.16
2019-02-05T09:48:09.090Z,1020.21
2019-02-05T09:49:09.087Z,1020.28
2019-02-05T09:50:09.089Z,1020.29
2019-02-05T09:51:09.080Z,1020.32
2019-02-05T09:52:09.049Z,1020.44
2019-02-05T09:53:09.058Z,1020.42
2019-02-05T09:54:09.030Z,1020.40
2019-02-05T09:55:09.019Z,1020.49
2019-02-05T09:56:09.018Z,1020.35
2019-02-05T09:57:08.985Z,1020.37
2019-02-05T09:58:08.987Z,1020.40
2019-02-05T09:59:08.971Z,1020.33
2019-02-05T10:00:09.825Z,1020.36
2019-02-05T10:01:08.965Z,1020.34
2019-02-05T10:02:08.940Z,1020.44
2019-02-05T10:03:08.925Z,1020.42
2019-02-05T10:04:08.925Z,1020.41
2019-02-05T10:05:08.956Z,1020.46
2019-02-05T10:06:08.906Z,1020.44
2019-02-05T10:07:08.882Z,1020.48
2019-02-05T10:08:08.878Z,1020.48
2019-02-05T10:09:08.872Z,1020.46
2019-02-05T10:10:08.868Z,1020.52
2019-02-05T10:11:08.871Z,1020.48
2019-02-05T10:12:08.829Z,1020.37
2019-02-05T10:13:08.817Z,1020.44
2019-02-05T10:14:08.813Z,1020.45
2019-02-05T10:15:08.795Z,1020.52
2019-02-05T10:16:08.814Z,1020.48
2019-02-05T10:17:08.776Z,1020.46
2019-02-05T10:18:08.772Z,1020.42
2019-02-05T10:19:08.754Z,1020.45
2019-02-05T10:20:08.747Z,1020.44
2019-02-05T10:21:08.772Z,1020.52
2019-02-05T10:22:08.705Z,1020.52
2019-02-05T10:23:08.715Z,1020.49
2019-02-05T10:24:08.692Z,1020.53
2019-02-05T10:25:08.695Z,1020.54
2019-02-05T10:26:08.697Z,1020.49
2019-02-05T10:27:08.676Z,1020.60
2019-02-05T10:28:08.647Z,1020.46
2019-02-05T10:29:08.642Z,1020.48
2019-02-05T10:30:08.634Z,1020.46
2019-02-05T10:31:08.608Z,1020.52
2019-02-05T10:32:08.616Z,1020.50
2019-02-05T10:33:08.584Z,1020.45
2019-02-05T10:34:08.579Z,1020.50
2019-02-05T10:35:08.560Z,1020.49
2019-02-05T10:36:08.560Z,1020.46
2019-02-05T10:37:08.553Z,1020.46
2019-02-05T10:38:08.541Z,1020.47
2019-02-05T10:39:08.535Z,1020.44
2019-02-05T10:40:08.514Z,1020.50
2019-02-05T10:41:08.493Z,1020.59
2019-02-05T10:42:08.497Z,1020.57
2019-02-05T10:43:08.497Z,1020.56
2019-02-05T10:44:08.483Z,1020.48
2019-02-05T10:45:08.459Z,1020.46
2019-02-05T10:46:08.450Z,1020.47
2019-02-05T10:47:08.450Z,1020.40
2019-02-05T10:48:08.422Z,1020.45
2019-02-05T10:49:08.417Z,1020.46
2019-02-05T10:50:08.407Z,1020.44
2019-02-05T10:51:08.385Z,1020.49
2019-02-05T10:52:08.391Z,1020.45
2019-02-05T10:53:08.378Z,1020.37
2019-02-05T10:54:08.362Z,1020.50
2019-02-05T10:55:08.365Z,1020.51
2019-02-05T10:56:08.333Z,1020.55
2019-02-05T10:57:08.439Z,1020.44
2019-02-05T10:58:08.314Z,1020.47
2019-02-05T10:59:08.292Z,1020.36
2019-02-05T11:00:09.264Z,1020.34
2019-02-05T11:01:08.266Z,1020.32
2019-02-05T11:02:08.278Z,1020.32
2019-02-05T11:03:08.258Z,1020.43
2019-02-05T11:04:08.254Z,1020.36
2019-02-05T11:05:08.226Z,1020.40
2019-02-05T11:06:08.229Z,1020.38
2019-02-05T11:07:08.230Z,1020.41
2019-02-05T11:08:08.194Z,1020.39
2019-02-05T11:09:08.184Z,1020.48
2019-02-05T11:10:08.168Z,1020.54
2019-02-05T11:11:08.188Z,1020.37
2019-02-05T11:12:08.173Z,1020.34
2019-02-05T11:13:08.144Z,1020.31
2019-02-05T11:14:08.149Z,1020.30
2019-02-05T11:15:08.127Z,1020.28
2019-02-05T11:16:08.139Z,1020.28
2019-02-05T11:17:08.112Z,1020.31
2019-02-05T11:18:08.083Z,1020.21
2019-02-05T11:19:08.079Z,1020.31
2019-02-05T11:20:08.062Z,1020.27
2019-02-05T11:21:08.060Z,1020.31
2019-02-05T11:22:08.051Z,1020.29
2019-02-05T11:23:08.053Z,1020.22
2019-02-05T11:24:08.030Z,1020.26
2019-02-05T11:25:08.013Z,1020.32
2019-02-05T11:26:08.002Z,1020.34
2019-02-05T11:27:07.983Z,1020.28
2019-02-05T11:28:07.982Z,1020.30
2019-02-05T11:29:07.963Z,1020.26
2019-02-05T11:30:07.954Z,1020.27
2019-02-05T11:31:07.946Z,1020.28
2019-02-05T11:32:07.949Z,1020.30
2019-02-05T11:33:07.942Z,1020.29
2019-02-05T11:34:07.901Z,1020.33
2019-02-05T11:35:07.902Z,1020.32
2019-02-05T11:36:07.885Z,1020.33
2019-02-05T11:37:07.874Z,1020.35
2019-02-05T11:38:07.875Z,1020.41
2019-02-05T11:39:07.852Z,1020.30
2019-02-05T11:40:07.849Z,1020.38
2019-02-05T11:41:07.839Z,1020.40
2019-02-05T11:42:07.820Z,1020.40
2019-02-05T11:43:07.834Z,1020.44
2019-02-05T11:44:07.797Z,1020.40
2019-02-05T11:45:07.817Z,1020.42
2019-02-05T11:46:07.779Z,1020.45
2019-02-05T11:47:07.777Z,1020.43
2019-02-05T11:48:07.765Z,1020.42
2019-02-05T11:49:07.741Z,1020.55
2019-02-05T11:50:07.723Z,1020.53
2019-02-05T11:51:07.720Z,1020.39
2019-02-05T11:52:09.736Z,1020.44
2019-02-05T11:53:07.734Z,1020.42
2019-02-05T11:54:07.685Z,1020.44
2019-02-05T11:55:07.664Z,1020.41
2019-02-05T11:56:07.657Z,1020.32
2019-02-05T11:57:07.655Z,1020.38
2019-02-05T11:58:07.733Z,1020.33
2019-02-05T11:59:07.621Z,1020.35
2019-02-05T12:00:07.616Z,1020.41
2019-02-05T12:01:07.611Z,1020.35
2019-02-05T12:02:07.604Z,1020.46
2019-02-05T12:03:07.612Z,1020.34
2019-02-05T12:04:07.592Z,1020.54
2019-02-05T12:05:07.560Z,1020.33